AFL4566 UNNT-UUDD
Flight info
| Callsign | AFL4566 |
|---|---|
| Flight time | N/A |
| Altitude | 38000 |
| Route | OGAMA1K OGAMA A308 OSNAB G828 SZ A487 OZGEL L158 APTAR T787 URAGO URAGO3M |
| Aircraft | A20N/M-SDE2E3FGHIRWXY/LB1 |
Departure
| Time | 2026-05-05 13:42 |
|---|---|
| Airport | Novosibirsk Tolmachevo Airport (UNNT) |
Arrival
| Time | N/A |
|---|---|
| Airport | Domodedovo International Airport (UUDD) |
| Time | Latitude | Longitude | Altitude | Speed | Heading |
|---|---|---|---|---|---|
| 2026-05-05 13:21 | 55.01023 | 82.66675 | 375 ft | 0 kts | 170° |
| 2026-05-05 13:34 | 55.01028 | 82.66673 | 375 ft | 3 kts | 170° |
| 2026-05-05 13:34 | 55.01049 | 82.66667 | 375 ft | 3 kts | 171° |
| 2026-05-05 13:34 | 55.01070 | 82.66663 | 375 ft | 3 kts | 179° |
| 2026-05-05 13:34 | 55.01086 | 82.66645 | 375 ft | 3 kts | 87° |
| 2026-05-05 13:35 | 55.01087 | 82.66643 | 375 ft | 0 kts | 83° |
| 2026-05-05 13:36 | 55.01087 | 82.66655 | 375 ft | 0 kts | 83° |
| 2026-05-05 13:37 | 55.01088 | 82.66657 | 375 ft | 1 kts | 82° |
| 2026-05-05 13:38 | 55.01097 | 82.66732 | 375 ft | 8 kts | 79° |
| 2026-05-05 13:38 | 55.01093 | 82.66857 | 375 ft | 13 kts | 110° |
| 2026-05-05 13:38 | 55.01085 | 82.67023 | 375 ft | 16 kts | 82° |
| 2026-05-05 13:38 | 55.01096 | 82.67156 | 375 ft | 18 kts | 81° |
| 2026-05-05 13:39 | 55.01109 | 82.67390 | 375 ft | 18 kts | 82° |
| 2026-05-05 13:39 | 55.01199 | 82.67543 | 375 ft | 20 kts | 31° |
| 2026-05-05 13:39 | 55.01229 | 82.67575 | 375 ft | 4 kts | 31° |
| 2026-05-05 13:39 | 55.01236 | 82.67582 | 375 ft | 0 kts | 31° |
| 2026-05-05 13:40 | 55.01245 | 82.67591 | 375 ft | 4 kts | 31° |
| 2026-05-05 13:40 | 55.01286 | 82.67634 | 374 ft | 9 kts | 30° |
| 2026-05-05 13:40 | 55.01357 | 82.67708 | 374 ft | 14 kts | 31° |
| 2026-05-05 13:41 | 55.01459 | 82.67771 | 373 ft | 12 kts | 351° |
| 2026-05-05 13:41 | 55.01481 | 82.67679 | 373 ft | 11 kts | 262° |
| 2026-05-05 13:41 | 55.01427 | 82.67068 | 376 ft | 102 kts | 261° |
| 2026-05-05 13:41 | 55.01268 | 82.65387 | 604 ft | 161 kts | 261° |
| 2026-05-05 13:42 | 55.01084 | 82.63449 | 1710 ft | 162 kts | 262° |
| 2026-05-05 13:42 | 55.00855 | 82.61529 | 2889 ft | 161 kts | 261° |
| 2026-05-05 13:42 | 55.00589 | 82.59550 | 3837 ft | 187 kts | 261° |
| 2026-05-05 13:42 | 55.00443 | 82.56938 | 4041 ft | 246 kts | 276° |
| 2026-05-05 13:43 | 55.01031 | 82.53986 | 4915 ft | 264 kts | 295° |
| 2026-05-05 13:43 | 55.01960 | 82.51341 | 6624 ft | 247 kts | 299° |
| 2026-05-05 13:43 | 55.02892 | 82.48898 | 8166 ft | 242 kts | 299° |
| 2026-05-05 13:43 | 55.03836 | 82.46328 | 9099 ft | 262 kts | 298° |
| 2026-05-05 13:44 | 55.04819 | 82.43501 | 9765 ft | 285 kts | 298° |
| 2026-05-05 13:44 | 55.05850 | 82.40440 | 10275 ft | 308 kts | 298° |
| 2026-05-05 13:44 | 55.06946 | 82.37139 | 11035 ft | 318 kts | 298° |
| 2026-05-05 13:44 | 55.08059 | 82.33776 | 12055 ft | 323 kts | 298° |
| 2026-05-05 13:45 | 55.09214 | 82.30277 | 12495 ft | 344 kts | 298° |
| 2026-05-05 13:45 | 55.10446 | 82.26535 | 12728 ft | 366 kts | 298° |
| 2026-05-05 13:45 | 55.11738 | 82.22613 | 13331 ft | 376 kts | 299° |
| 2026-05-05 13:45 | 55.13050 | 82.18625 | 14087 ft | 381 kts | 299° |
| 2026-05-05 13:46 | 55.14380 | 82.14579 | 14741 ft | 387 kts | 298° |
| 2026-05-05 13:46 | 55.15730 | 82.10464 | 15390 ft | 393 kts | 298° |
| 2026-05-05 13:46 | 55.17096 | 82.06294 | 16039 ft | 398 kts | 298° |
| 2026-05-05 13:46 | 55.18478 | 82.02065 | 16683 ft | 403 kts | 298° |
| 2026-05-05 13:47 | 55.19880 | 81.97767 | 17319 ft | 409 kts | 298° |
| 2026-05-05 13:47 | 55.21299 | 81.93409 | 17934 ft | 414 kts | 297° |
| 2026-05-05 13:47 | 55.22714 | 81.89057 | 18183 ft | 417 kts | 297° |
| 2026-05-05 13:47 | 55.24149 | 81.84633 | 17974 ft | 414 kts | 297° |
| 2026-05-05 13:48 | 55.25574 | 81.80233 | 17987 ft | 414 kts | 297° |
| 2026-05-05 13:48 | 55.26989 | 81.75857 | 17971 ft | 413 kts | 297° |
| 2026-05-05 13:48 | 55.28404 | 81.71472 | 17970 ft | 413 kts | 297° |
| 2026-05-05 13:48 | 55.29823 | 81.67067 | 18002 ft | 419 kts | 297° |
| 2026-05-05 13:49 | 55.31266 | 81.62578 | 18610 ft | 422 kts | 297° |
| 2026-05-05 13:49 | 55.32709 | 81.58083 | 19327 ft | 422 kts | 297° |
| 2026-05-05 13:49 | 55.34097 | 81.53750 | 19907 ft | 425 kts | 297° |
| 2026-05-05 13:49 | 55.35548 | 81.49210 | 20498 ft | 427 kts | 297° |
| 2026-05-05 13:50 | 55.37004 | 81.44649 | 21078 ft | 430 kts | 297° |
| 2026-05-05 13:50 | 55.38473 | 81.40037 | 21615 ft | 433 kts | 297° |
| 2026-05-05 13:50 | 55.39947 | 81.35399 | 22171 ft | 436 kts | 297° |
| 2026-05-05 13:50 | 55.41429 | 81.30728 | 22712 ft | 438 kts | 297° |
| 2026-05-05 13:51 | 55.42916 | 81.26035 | 23219 ft | 441 kts | 297° |
| 2026-05-05 13:51 | 55.44411 | 81.21303 | 23669 ft | 443 kts | 297° |
| 2026-05-05 13:51 | 55.45804 | 81.16536 | 24031 ft | 444 kts | 293° |
| 2026-05-05 13:51 | 55.46978 | 81.11436 | 24383 ft | 444 kts | 289° |
| 2026-05-05 13:52 | 55.47873 | 81.06291 | 24655 ft | 444 kts | 284° |
| 2026-05-05 13:52 | 55.48592 | 81.01006 | 24982 ft | 442 kts | 283° |
| 2026-05-05 13:52 | 55.49322 | 80.95738 | 25300 ft | 441 kts | 283° |
| 2026-05-05 13:52 | 55.50053 | 80.90498 | 25635 ft | 440 kts | 283° |
| 2026-05-05 13:53 | 55.50778 | 80.85262 | 25964 ft | 438 kts | 283° |
| 2026-05-05 13:53 | 55.51493 | 80.80055 | 26304 ft | 437 kts | 283° |
| 2026-05-05 13:53 | 55.52027 | 80.74789 | 26625 ft | 436 kts | 275° |
| 2026-05-05 13:53 | 55.51938 | 80.69436 | 26956 ft | 437 kts | 266° |
| 2026-05-05 13:54 | 55.51626 | 80.64099 | 27284 ft | 436 kts | 266° |
| 2026-05-05 13:54 | 55.51305 | 80.58790 | 27613 ft | 435 kts | 266° |
| 2026-05-05 13:54 | 55.50986 | 80.53492 | 27941 ft | 433 kts | 266° |
| 2026-05-05 13:54 | 55.50668 | 80.48205 | 28279 ft | 431 kts | 266° |
| 2026-05-05 13:55 | 55.50353 | 80.42955 | 28646 ft | 429 kts | 266° |
| 2026-05-05 13:55 | 55.50037 | 80.37722 | 28951 ft | 428 kts | 266° |
| 2026-05-05 13:55 | 55.49724 | 80.32563 | 29275 ft | 427 kts | 266° |
| 2026-05-05 13:55 | 55.49407 | 80.27354 | 29592 ft | 426 kts | 266° |
| 2026-05-05 13:56 | 55.49087 | 80.22159 | 29933 ft | 425 kts | 266° |
| 2026-05-05 13:56 | 55.48766 | 80.16982 | 30255 ft | 424 kts | 266° |
| 2026-05-05 13:56 | 55.48445 | 80.11832 | 30604 ft | 422 kts | 266° |
| 2026-05-05 13:56 | 55.48122 | 80.06704 | 30970 ft | 420 kts | 266° |
| 2026-05-05 13:57 | 55.47799 | 80.01593 | 31352 ft | 418 kts | 266° |
| 2026-05-05 13:57 | 55.47474 | 79.96499 | 31715 ft | 416 kts | 266° |
| 2026-05-05 13:57 | 55.47150 | 79.91443 | 32102 ft | 414 kts | 266° |
| 2026-05-05 13:57 | 55.46826 | 79.86414 | 32474 ft | 412 kts | 266° |
| 2026-05-05 13:58 | 55.46501 | 79.81412 | 32830 ft | 410 kts | 266° |
| 2026-05-05 13:58 | 55.46175 | 79.76423 | 33184 ft | 409 kts | 266° |
| 2026-05-05 13:58 | 55.45849 | 79.71459 | 33523 ft | 407 kts | 265° |
| 2026-05-05 13:58 | 55.45551 | 79.66951 | 33836 ft | 406 kts | 265° |
| 2026-05-05 13:59 | 55.44882 | 79.56940 | 34343 ft | 406 kts | 265° |
| 2026-05-05 13:59 | 55.44549 | 79.51984 | 34543 ft | 406 kts | 265° |
| 2026-05-05 14:00 | 55.43967 | 79.43428 | 34903 ft | 407 kts | 265° |
| 2026-05-05 14:00 | 55.43742 | 79.40145 | 34928 ft | 407 kts | 265° |
| 2026-05-05 14:00 | 55.42946 | 79.28609 | 34935 ft | 406 kts | 265° |
| 2026-05-05 14:01 | 55.42273 | 79.18993 | 34935 ft | 406 kts | 265° |
| 2026-05-05 14:01 | 55.41579 | 79.09197 | 34932 ft | 406 kts | 265° |
| 2026-05-05 14:02 | 55.40911 | 78.99863 | 34927 ft | 406 kts | 265° |
| 2026-05-05 14:02 | 55.39406 | 78.90253 | 34937 ft | 408 kts | 259° |
| 2026-05-05 14:03 | 55.38885 | 78.85440 | 34782 ft | 404 kts | 260° |
| 2026-05-05 14:03 | 55.38455 | 78.80571 | 34197 ft | 401 kts | 266° |
| 2026-05-05 14:03 | 55.38335 | 78.75695 | 33289 ft | 400 kts | 270° |
| 2026-05-05 14:03 | 55.38316 | 78.70785 | 32101 ft | 403 kts | 270° |
| 2026-05-05 14:04 | 55.38208 | 78.65832 | 30806 ft | 409 kts | 264° |